sensor_id;sensor_type;location;lat;lon;timestamp;pressure;altitude;pressure_sealevel;temperature;humidity
76205;BME280;64986;55.672;37.628;2022-12-18T00:01:35;98964.19;;;-2.66;75.62
76205;BME280;64986;55.672;37.628;2022-12-18T00:04:02;98956.22;;;-2.63;75.72
76205;BME280;64986;55.672;37.628;2022-12-18T00:06:29;98951.88;;;-2.72;75.86
76205;BME280;64986;55.672;37.628;2022-12-18T00:08:56;98950.34;;;-2.74;76.00
76205;BME280;64986;55.672;37.628;2022-12-18T00:11:24;98943.03;;;-2.79;76.07
76205;BME280;64986;55.672;37.628;2022-12-18T00:13:51;98938.94;;;-2.82;75.59
76205;BME280;64986;55.672;37.628;2022-12-18T00:16:19;98926.50;;;-2.86;75.52
76205;BME280;64986;55.672;37.628;2022-12-18T00:18:46;98942.88;;;-2.87;76.03
76205;BME280;64986;55.672;37.628;2022-12-18T00:21:12;98936.53;;;-2.83;75.88
76205;BME280;64986;55.672;37.628;2022-12-18T00:23:40;98942.63;;;-2.84;76.03
76205;BME280;64986;55.672;37.628;2022-12-18T00:26:14;98925.56;;;-2.75;75.55
76205;BME280;64986;55.672;37.628;2022-12-18T00:28:41;98928.78;;;-2.83;75.91
76205;BME280;64986;55.672;37.628;2022-12-18T00:31:09;98924.59;;;-2.74;76.69
76205;BME280;64986;55.672;37.628;2022-12-18T00:33:36;98920.41;;;-2.75;76.17
76205;BME280;64986;55.672;37.628;2022-12-18T00:36:06;98917.28;;;-2.79;76.16
76205;BME280;64986;55.672;37.628;2022-12-18T00:38:33;98914.00;;;-2.81;76.50
76205;BME280;64986;55.672;37.628;2022-12-18T00:40:59;98916.06;;;-2.85;76.52
76205;BME280;64986;55.672;37.628;2022-12-18T00:43:25;98912.13;;;-2.79;76.42
76205;BME280;64986;55.672;37.628;2022-12-18T00:45:50;98897.59;;;-2.80;76.39
76205;BME280;64986;55.672;37.628;2022-12-18T00:48:16;98901.28;;;-2.73;75.93
76205;BME280;64986;55.672;37.628;2022-12-18T00:50:42;98891.25;;;-2.76;76.57
76205;BME280;64986;55.672;37.628;2022-12-18T00:53:11;98879.72;;;-2.82;76.08
76205;BME280;64986;55.672;37.628;2022-12-18T00:55:39;98884.34;;;-2.75;76.44
76205;BME280;64986;55.672;37.628;2022-12-18T00:58:06;98867.41;;;-2.78;76.55
76205;BME280;64986;55.672;37.628;2022-12-18T01:00:31;98862.25;;;-2.78;76.26
76205;BME280;64986;55.672;37.628;2022-12-18T01:02:57;98859.16;;;-2.72;76.05
76205;BME280;64986;55.672;37.628;2022-12-18T01:05:22;98858.31;;;-2.72;76.56
76205;BME280;64986;55.672;37.628;2022-12-18T01:07:48;98852.75;;;-2.68;76.58
76205;BME280;64986;55.672;37.628;2022-12-18T01:10:13;98844.63;;;-2.73;76.29
76205;BME280;64986;55.672;37.628;2022-12-18T01:12:39;98848.44;;;-2.77;76.34
76205;BME280;64986;55.672;37.628;2022-12-18T01:15:06;98848.69;;;-2.80;76.09
76205;BME280;64986;55.672;37.628;2022-12-18T01:17:33;98843.53;;;-2.90;76.25
76205;BME280;64986;55.672;37.628;2022-12-18T01:19:58;98844.50;;;-2.91;76.30
76205;BME280;64986;55.672;37.628;2022-12-18T01:22:24;98837.28;;;-2.87;76.50
76205;BME280;64986;55.672;37.628;2022-12-18T01:24:49;98841.38;;;-2.85;76.28
76205;BME280;64986;55.672;37.628;2022-12-18T01:27:15;98836.47;;;-2.88;76.33
76205;BME280;64986;55.672;37.628;2022-12-18T01:29:40;98838.25;;;-2.78;76.24
76205;BME280;64986;55.672;37.628;2022-12-18T01:32:06;98849.09;;;-2.85;76.40
76205;BME280;64986;55.672;37.628;2022-12-18T01:34:31;98844.09;;;-2.86;76.14
76205;BME280;64986;55.672;37.628;2022-12-18T01:36:57;98856.56;;;-2.91;76.51
76205;BME280;64986;55.672;37.628;2022-12-18T01:39:22;98848.69;;;-2.90;76.04
76205;BME280;64986;55.672;37.628;2022-12-18T01:41:48;98831.63;;;-2.91;76.31
76205;BME280;64986;55.672;37.628;2022-12-18T01:44:54;98834.88;;;-2.98;76.03
76205;BME280;64986;55.672;37.628;2022-12-18T01:49:55;98830.38;;;-2.96;76.61
76205;BME280;64986;55.672;37.628;2022-12-18T01:52:21;98837.72;;;-2.92;76.67
76205;BME280;64986;55.672;37.628;2022-12-18T01:54:49;98838.66;;;-2.83;76.22
76205;BME280;64986;55.672;37.628;2022-12-18T01:57:15;98827.94;;;-2.98;76.35
76205;BME280;64986;55.672;37.628;2022-12-18T01:59:42;98837.03;;;-2.94;76.41
76205;BME280;64986;55.672;37.628;2022-12-18T02:02:10;98829.44;;;-2.95;76.32
76205;BME280;64986;55.672;37.628;2022-12-18T02:04:36;98828.09;;;-2.90;75.88
76205;BME280;64986;55.672;37.628;2022-12-18T02:07:10;98826.19;;;-2.88;76.13
76205;BME280;64986;55.672;37.628;2022-12-18T02:09:46;98802.06;;;-2.96;76.22
76205;BME280;64986;55.672;37.628;2022-12-18T02:12:22;98819.81;;;-2.84;76.20
76205;BME280;64986;55.672;37.628;2022-12-18T02:17:20;98833.91;;;-2.88;76.17
76205;BME280;64986;55.672;37.628;2022-12-18T02:20:28;98838.66;;;-2.93;75.89
76205;BME280;64986;55.672;37.628;2022-12-18T02:23:24;98834.06;;;-2.99;75.37
76205;BME280;64986;55.672;37.628;2022-12-18T02:28:40;98823.34;;;-2.94;76.73
76205;BME280;64986;55.672;37.628;2022-12-18T02:31:10;98815.88;;;-2.97;76.17
76205;BME280;64986;55.672;37.628;2022-12-18T02:33:37;98816.97;;;-3.00;75.82
76205;BME280;64986;55.672;37.628;2022-12-18T02:36:05;98826.19;;;-2.97;76.35
76205;BME280;64986;55.672;37.628;2022-12-18T02:38:31;98818.06;;;-2.93;75.98
76205;BME280;64986;55.672;37.628;2022-12-18T02:40:59;98816.84;;;-2.98;76.91
76205;BME280;64986;55.672;37.628;2022-12-18T02:43:25;98819.00;;;-3.03;76.68
76205;BME280;64986;55.672;37.628;2022-12-18T02:45:54;98811.66;;;-3.18;75.52
76205;BME280;64986;55.672;37.628;2022-12-18T02:48:28;98827.00;;;-3.07;76.09
76205;BME280;64986;55.672;37.628;2022-12-18T02:51:14;98833.09;;;-2.98;76.26
76205;BME280;64986;55.672;37.628;2022-12-18T02:53:45;98847.59;;;-3.07;76.10
76205;BME280;64986;55.672;37.628;2022-12-18T02:56:20;98840.81;;;-3.08;76.28
76205;BME280;64986;55.672;37.628;2022-12-18T03:01:30;98829.44;;;-3.05;76.50
76205;BME280;64986;55.672;37.628;2022-12-18T03:04:47;98805.72;;;-2.99;76.78
76205;BME280;64986;55.672;37.628;2022-12-18T03:07:08;98810.22;;;-3.01;76.72
76205;BME280;64986;55.672;37.628;2022-12-18T03:09:37;98818.84;;;-3.12;76.21
76205;BME280;64986;55.672;37.628;2022-12-18T03:12:13;98814.28;;;-3.08;76.03
76205;BME280;64986;55.672;37.628;2022-12-18T03:15:19;98813.75;;;-3.02;76.33
76205;BME280;64986;55.672;37.628;2022-12-18T03:17:59;98823.91;;;-3.00;75.84
76205;BME280;64986;55.672;37.628;2022-12-18T03:20:27;98823.19;;;-3.02;76.43
76205;BME280;64986;55.672;37.628;2022-12-18T03:23:02;98817.78;;;-2.99;76.44
76205;BME280;64986;55.672;37.628;2022-12-18T03:25:30;98829.72;;;-2.98;76.37
76205;BME280;64986;55.672;37.628;2022-12-18T03:27:58;98832.97;;;-3.06;76.57
76205;BME280;64986;55.672;37.628;2022-12-18T03:30:26;98811.00;;;-3.20;76.27
76205;BME280;64986;55.672;37.628;2022-12-18T03:33:05;98814.13;;;-3.16;76.39
76205;BME280;64986;55.672;37.628;2022-12-18T03:35:36;98819.66;;;-3.11;76.30
76205;BME280;64986;55.672;37.628;2022-12-18T03:38:03;98823.59;;;-2.97;77.11
76205;BME280;64986;55.672;37.628;2022-12-18T03:40:41;98830.81;;;-2.91;76.49
76205;BME280;64986;55.672;37.628;2022-12-18T03:43:14;98821.03;;;-2.97;76.77
76205;BME280;64986;55.672;37.628;2022-12-18T03:45:51;98813.44;;;-2.89;76.83
76205;BME280;64986;55.672;37.628;2022-12-18T03:48:28;98819.94;;;-3.04;76.25
76205;BME280;64986;55.672;37.628;2022-12-18T03:51:03;98807.88;;;-3.04;76.08
76205;BME280;64986;55.672;37.628;2022-12-18T03:53:42;98812.09;;;-3.03;76.31
76205;BME280;64986;55.672;37.628;2022-12-18T03:56:13;98824.16;;;-2.94;76.16
76205;BME280;64986;55.672;37.628;2022-12-18T03:58:41;98816.28;;;-2.83;76.46
76205;BME280;64986;55.672;37.628;2022-12-18T04:01:10;98824.03;;;-2.92;76.30
76205;BME280;64986;55.672;37.628;2022-12-18T04:03:37;98831.75;;;-2.92;76.36
76205;BME280;64986;55.672;37.628;2022-12-18T04:06:04;98823.91;;;-3.00;76.37
76205;BME280;64986;55.672;37.628;2022-12-18T04:08:31;98806.94;;;-3.22;75.88
76205;BME280;64986;55.672;37.628;2022-12-18T04:10:59;98823.75;;;-3.09;76.68
76205;BME280;64986;55.672;37.628;2022-12-18T04:13:29;98817.50;;;-3.06;76.59
76205;BME280;64986;55.672;37.628;2022-12-18T04:15:55;98830.81;;;-3.01;76.40
76205;BME280;64986;55.672;37.628;2022-12-18T04:18:20;98856.94;;;-2.96;77.14
76205;BME280;64986;55.672;37.628;2022-12-18T04:20:46;98859.50;;;-2.96;76.70
76205;BME280;64986;55.672;37.628;2022-12-18T04:23:11;98858.03;;;-2.89;76.85
76205;BME280;64986;55.672;37.628;2022-12-18T04:25:37;98858.16;;;-3.10;75.90
76205;BME280;64986;55.672;37.628;2022-12-18T04:28:02;98857.06;;;-3.17;76.34
76205;BME280;64986;55.672;37.628;2022-12-18T04:30:28;98862.47;;;-3.10;76.11
76205;BME280;64986;55.672;37.628;2022-12-18T04:32:53;98864.78;;;-3.17;76.35
76205;BME280;64986;55.672;37.628;2022-12-18T04:35:19;98881.59;;;-3.13;76.55
76205;BME280;64986;55.672;37.628;2022-12-18T04:37:44;98878.13;;;-3.32;76.25
76205;BME280;64986;55.672;37.628;2022-12-18T04:40:10;98880.59;;;-3.31;76.00
76205;BME280;64986;55.672;37.628;2022-12-18T04:42:36;98874.66;;;-3.22;76.02
76205;BME280;64986;55.672;37.628;2022-12-18T04:45:02;98898.81;;;-3.03;76.86
76205;BME280;64986;55.672;37.628;2022-12-18T04:47:27;98916.31;;;-2.88;76.81
76205;BME280;64986;55.672;37.628;2022-12-18T04:49:53;98902.16;;;-3.22;74.85
76205;BME280;64986;55.672;37.628;2022-12-18T04:52:18;98909.38;;;-2.97;76.11
76205;BME280;64986;55.672;37.628;2022-12-18T04:54:44;98915.78;;;-2.91;76.20
76205;BME280;64986;55.672;37.628;2022-12-18T04:57:09;98914.28;;;-2.84;75.56
76205;BME280;64986;55.672;37.628;2022-12-18T04:59:35;98898.69;;;-2.92;75.07
76205;BME280;64986;55.672;37.628;2022-12-18T05:02:00;98913.06;;;-2.90;76.10
76205;BME280;64986;55.672;37.628;2022-12-18T05:04:26;98917.25;;;-2.89;75.66
76205;BME280;64986;55.672;37.628;2022-12-18T05:06:51;98902.09;;;-2.92;75.78
76205;BME280;64986;55.672;37.628;2022-12-18T05:09:17;98905.09;;;-2.87;75.93
76205;BME280;64986;55.672;37.628;2022-12-18T05:11:42;98918.63;;;-2.75;76.31
76205;BME280;64986;55.672;37.628;2022-12-18T05:14:08;98917.53;;;-2.82;75.48
76205;BME280;64986;55.672;37.628;2022-12-18T05:16:33;98930.16;;;-2.79;75.62
76205;BME280;64986;55.672;37.628;2022-12-18T05:18:59;98925.69;;;-2.77;75.30
76205;BME280;64986;55.672;37.628;2022-12-18T05:21:24;98924.75;;;-2.76;75.17
76205;BME280;64986;55.672;37.628;2022-12-18T05:23:50;98926.13;;;-2.72;75.12
76205;BME280;64986;55.672;37.628;2022-12-18T05:26:17;98930.28;;;-2.81;75.08
76205;BME280;64986;55.672;37.628;2022-12-18T05:28:45;98947.50;;;-2.81;75.08
76205;BME280;64986;55.672;37.628;2022-12-18T05:31:11;98954.03;;;-2.77;75.15
76205;BME280;64986;55.672;37.628;2022-12-18T05:33:37;98954.31;;;-2.70;75.11
76205;BME280;64986;55.672;37.628;2022-12-18T05:36:05;98975.44;;;-2.67;74.73
76205;BME280;64986;55.672;37.628;2022-12-18T05:38:31;98960.94;;;-2.77;74.76
76205;BME280;64986;55.672;37.628;2022-12-18T05:40:57;98952.25;;;-2.86;74.17
76205;BME280;64986;55.672;37.628;2022-12-18T05:43:24;98980.22;;;-3.02;74.98
76205;BME280;64986;55.672;37.628;2022-12-18T05:45:50;98965.66;;;-2.92;74.91
76205;BME280;64986;55.672;37.628;2022-12-18T05:48:17;98994.06;;;-3.03;75.03
76205;BME280;64986;55.672;37.628;2022-12-18T05:50:44;98990.00;;;-2.96;74.93
76205;BME280;64986;55.672;37.628;2022-12-18T05:53:14;98986.94;;;-2.81;74.97
76205;BME280;64986;55.672;37.628;2022-12-18T05:55:41;98989.44;;;-2.60;75.24
76205;BME280;64986;55.672;37.628;2022-12-18T05:58:09;99000.69;;;-2.61;74.28
76205;BME280;64986;55.672;37.628;2022-12-18T06:00:37;98998.09;;;-2.61;74.09
76205;BME280;64986;55.672;37.628;2022-12-18T06:03:07;98997.97;;;-2.49;74.12
76205;BME280;64986;55.672;37.628;2022-12-18T06:05:36;98980.22;;;-2.53;73.91
76205;BME280;64986;55.672;37.628;2022-12-18T06:08:02;99000.56;;;-2.49;73.62
76205;BME280;64986;55.672;37.628;2022-12-18T06:10:28;99011.84;;;-2.41;73.40
76205;BME280;64986;55.672;37.628;2022-12-18T06:12:54;99021.19;;;-2.40;73.26
76205;BME280;64986;55.672;37.628;2022-12-18T06:15:19;99022.81;;;-2.39;73.30
76205;BME280;64986;55.672;37.628;2022-12-18T06:17:45;99014.13;;;-2.38;73.78
76205;BME280;64986;55.672;37.628;2022-12-18T06:20:10;99026.50;;;-2.41;72.91
76205;BME280;64986;55.672;37.628;2022-12-18T06:22:35;99016.03;;;-2.40;72.12
76205;BME280;64986;55.672;37.628;2022-12-18T06:25:01;99024.88;;;-2.23;72.73
76205;BME280;64986;55.672;37.628;2022-12-18T06:27:26;99031.22;;;-2.27;72.80
76205;BME280;64986;55.672;37.628;2022-12-18T06:29:52;99027.44;;;-2.23;72.94
76205;BME280;64986;55.672;37.628;2022-12-18T06:32:17;99043.44;;;-2.19;73.43
76205;BME280;64986;55.672;37.628;2022-12-18T06:34:43;99047.25;;;-2.14;73.14
76205;BME280;64986;55.672;37.628;2022-12-18T06:37:08;99052.03;;;-2.00;73.23
76205;BME280;64986;55.672;37.628;2022-12-18T06:39:34;99052.69;;;-2.17;73.20
76205;BME280;64986;55.672;37.628;2022-12-18T06:41:59;99065.59;;;-2.07;72.33
76205;BME280;64986;55.672;37.628;2022-12-18T06:44:25;99062.72;;;-2.04;72.23
76205;BME280;64986;55.672;37.628;2022-12-18T06:46:50;99070.75;;;-2.07;72.48
76205;BME280;64986;55.672;37.628;2022-12-18T06:49:16;99075.75;;;-2.25;70.48
76205;BME280;64986;55.672;37.628;2022-12-18T06:51:42;99091.53;;;-2.59;70.53
76205;BME280;64986;55.672;37.628;2022-12-18T06:54:08;99098.81;;;-2.33;71.88
76205;BME280;64986;55.672;37.628;2022-12-18T06:56:34;99120.53;;;-2.26;71.69
76205;BME280;64986;55.672;37.628;2022-12-18T06:58:59;99096.38;;;-2.06;71.95
76205;BME280;64986;55.672;37.628;2022-12-18T07:01:25;99116.50;;;-2.00;71.92
76205;BME280;64986;55.672;37.628;2022-12-18T07:03:55;99121.22;;;-2.05;70.60
76205;BME280;64986;55.672;37.628;2022-12-18T07:06:22;99111.84;;;-2.25;69.81
76205;BME280;64986;55.672;37.628;2022-12-18T07:08:50;99109.50;;;-2.28;70.66
76205;BME280;64986;55.672;37.628;2022-12-18T07:11:16;99118.13;;;-1.99;71.58
76205;BME280;64986;55.672;37.628;2022-12-18T07:13:42;99112.56;;;-1.94;71.16
76205;BME280;64986;55.672;37.628;2022-12-18T07:16:19;99120.84;;;-2.10;71.06
76205;BME280;64986;55.672;37.628;2022-12-18T07:18:46;99130.34;;;-2.01;70.56
76205;BME280;64986;55.672;37.628;2022-12-18T07:21:14;99148.22;;;-2.18;70.50
76205;BME280;64986;55.672;37.628;2022-12-18T07:23:40;99160.19;;;-1.98;70.53
76205;BME280;64986;55.672;37.628;2022-12-18T07:26:11;99152.38;;;-2.27;70.01
76205;BME280;64986;55.672;37.628;2022-12-18T07:28:38;99157.47;;;-2.56;70.82
76205;BME280;64986;55.672;37.628;2022-12-18T07:31:05;99148.66;;;-2.54;69.78
76205;BME280;64986;55.672;37.628;2022-12-18T07:33:33;99157.72;;;-2.49;69.29
76205;BME280;64986;55.672;37.628;2022-12-18T07:36:00;99179.38;;;-2.31;69.94
76205;BME280;64986;55.672;37.628;2022-12-18T07:38:25;99159.03;;;-2.34;69.08
76205;BME280;64986;55.672;37.628;2022-12-18T07:40:51;99168.59;;;-2.06;69.65
76205;BME280;64986;55.672;37.628;2022-12-18T07:43:16;99160.69;;;-2.14;69.14
76205;BME280;64986;55.672;37.628;2022-12-18T07:45:42;99176.84;;;-2.12;69.02
76205;BME280;64986;55.672;37.628;2022-12-18T07:48:07;99166.28;;;-2.18;68.37
76205;BME280;64986;55.672;37.628;2022-12-18T07:50:33;99171.84;;;-2.13;68.38
76205;BME280;64986;55.672;37.628;2022-12-18T07:52:58;99172.94;;;-1.97;68.69
76205;BME280;64986;55.672;37.628;2022-12-18T07:55:29;99175.06;;;-2.21;66.91
76205;BME280;64986;55.672;37.628;2022-12-18T07:57:55;99178.75;;;-2.14;69.02
76205;BME280;64986;55.672;37.628;2022-12-18T08:00:20;99182.22;;;-1.94;68.80
76205;BME280;64986;55.672;37.628;2022-12-18T08:02:46;99177.94;;;-2.14;68.50
76205;BME280;64986;55.672;37.628;2022-12-18T08:05:11;99190.38;;;-1.79;68.72
76205;BME280;64986;55.672;37.628;2022-12-18T08:07:37;99194.06;;;-1.72;69.04
76205;BME280;64986;55.672;37.628;2022-12-18T08:10:03;99203.44;;;-1.71;68.71
76205;BME280;64986;55.672;37.628;2022-12-18T08:12:29;99197.66;;;-2.04;68.49
76205;BME280;64986;55.672;37.628;2022-12-18T08:14:54;99222.00;;;-1.87;67.97
76205;BME280;64986;55.672;37.628;2022-12-18T08:17:20;99222.97;;;-1.88;68.82
76205;BME280;64986;55.672;37.628;2022-12-18T08:19:45;99237.56;;;-1.98;69.25
76205;BME280;64986;55.672;37.628;2022-12-18T08:22:11;99243.00;;;-2.01;68.08
76205;BME280;64986;55.672;37.628;2022-12-18T08:24:36;99235.16;;;-1.90;67.12
76205;BME280;64986;55.672;37.628;2022-12-18T08:27:02;99238.16;;;-1.85;68.49
76205;BME280;64986;55.672;37.628;2022-12-18T08:29:27;99240.38;;;-2.11;66.58
76205;BME280;64986;55.672;37.628;2022-12-18T08:31:53;99237.22;;;-2.24;68.12
76205;BME280;64986;55.672;37.628;2022-12-18T08:34:18;99251.25;;;-2.07;68.01
76205;BME280;64986;55.672;37.628;2022-12-18T08:36:44;99257.16;;;-1.96;67.30
76205;BME280;64986;55.672;37.628;2022-12-18T08:39:09;99236.88;;;-2.10;67.19
76205;BME280;64986;55.672;37.628;2022-12-18T08:41:35;99247.69;;;-2.16;67.96
76205;BME280;64986;55.672;37.628;2022-12-18T08:44:00;99251.72;;;-1.92;67.22
76205;BME280;64986;55.672;37.628;2022-12-18T08:46:44;99241.09;;;-1.99;65.72
76205;BME280;64986;55.672;37.628;2022-12-18T08:49:11;99253.06;;;-2.29;64.73
76205;BME280;64986;55.672;37.628;2022-12-18T08:51:37;99255.56;;;-1.77;66.76
76205;BME280;64986;55.672;37.628;2022-12-18T08:54:04;99271.19;;;-1.69;66.53
76205;BME280;64986;55.672;37.628;2022-12-18T08:56:30;99267.81;;;-1.60;66.78
76205;BME280;64986;55.672;37.628;2022-12-18T08:58:56;99251.81;;;-1.54;66.73
76205;BME280;64986;55.672;37.628;2022-12-18T09:01:22;99257.25;;;-1.57;66.54
76205;BME280;64986;55.672;37.628;2022-12-18T09:03:49;99247.44;;;-1.53;66.60
76205;BME280;64986;55.672;37.628;2022-12-18T09:06:16;99254.34;;;-1.73;65.27
76205;BME280;64986;55.672;37.628;2022-12-18T09:08:43;99247.31;;;-1.52;65.63
76205;BME280;64986;55.672;37.628;2022-12-18T09:11:28;99267.28;;;-2.04;63.88
76205;BME280;64986;55.672;37.628;2022-12-18T09:13:54;99270.44;;;-1.50;66.31
76205;BME280;64986;55.672;37.628;2022-12-18T09:16:21;99280.63;;;-1.39;66.08
76205;BME280;64986;55.672;37.628;2022-12-18T09:18:47;99290.81;;;-1.47;66.29
76205;BME280;64986;55.672;37.628;2022-12-18T09:21:20;99305.16;;;-1.64;64.30
76205;BME280;64986;55.672;37.628;2022-12-18T09:23:50;99298.78;;;-1.60;66.25
76205;BME280;64986;55.672;37.628;2022-12-18T09:26:16;99304.88;;;-1.71;66.23
76205;BME280;64986;55.672;37.628;2022-12-18T09:28:42;99315.13;;;-1.50;66.76
76205;BME280;64986;55.672;37.628;2022-12-18T09:31:08;99310.78;;;-1.40;66.09
76205;BME280;64986;55.672;37.628;2022-12-18T09:33:35;99318.69;;;-1.31;66.50
76205;BME280;64986;55.672;37.628;2022-12-18T09:36:04;99311.97;;;-1.53;65.13
76205;BME280;64986;55.672;37.628;2022-12-18T09:38:30;99325.28;;;-1.58;66.41
76205;BME280;64986;55.672;37.628;2022-12-18T09:41:00;99312.94;;;-1.45;66.59
76205;BME280;64986;55.672;37.628;2022-12-18T09:43:52;99322.97;;;-1.61;65.73
76205;BME280;64986;55.672;37.628;2022-12-18T09:46:25;99332.25;;;-1.39;66.39
76205;BME280;64986;55.672;37.628;2022-12-18T09:48:55;99323.75;;;-1.70;65.89
76205;BME280;64986;55.672;37.628;2022-12-18T09:51:27;99322.56;;;-1.66;66.19
76205;BME280;64986;55.672;37.628;2022-12-18T09:53:59;99339.81;;;-1.57;66.61
76205;BME280;64986;55.672;37.628;2022-12-18T09:56:28;99329.22;;;-1.63;66.53
76205;BME280;64986;55.672;37.628;2022-12-18T09:59:00;99345.69;;;-1.45;66.52
76205;BME280;64986;55.672;37.628;2022-12-18T10:01:28;99337.25;;;-1.47;66.87
76205;BME280;64986;55.672;37.628;2022-12-18T10:03:54;99342.91;;;-1.73;67.27
76205;BME280;64986;55.672;37.628;2022-12-18T10:06:45;99345.94;;;-1.88;64.93
76205;BME280;64986;55.672;37.628;2022-12-18T10:12:05;99337.31;;;-1.68;67.27
76205;BME280;64986;55.672;37.628;2022-12-18T10:20:24;99340.34;;;-1.93;66.64
76205;BME280;64986;55.672;37.628;2022-12-18T10:28:14;99342.13;;;-1.54;66.84
76205;BME280;64986;55.672;37.628;2022-12-18T10:30:41;99334.81;;;-1.58;67.35
76205;BME280;64986;55.672;37.628;2022-12-18T10:33:11;99333.03;;;-1.58;67.25
76205;BME280;64986;55.672;37.628;2022-12-18T10:35:41;99344.13;;;-1.67;67.25
76205;BME280;64986;55.672;37.628;2022-12-18T10:38:20;99348.56;;;-1.79;66.37
76205;BME280;64986;55.672;37.628;2022-12-18T10:43:20;99356.94;;;-1.56;67.41
76205;BME280;64986;55.672;37.628;2022-12-18T10:51:06;99368.88;;;-1.95;67.31
76205;BME280;64986;55.672;37.628;2022-12-18T10:53:34;99370.97;;;-1.79;68.52
76205;BME280;64986;55.672;37.628;2022-12-18T10:56:02;99404.94;;;-1.74;67.85
76205;BME280;64986;55.672;37.628;2022-12-18T10:58:37;99411.00;;;-1.54;68.26
76205;BME280;64986;55.672;37.628;2022-12-18T11:01:13;99411.97;;;-1.55;67.18
76205;BME280;64986;55.672;37.628;2022-12-18T11:03:43;99423.63;;;-1.51;68.32
76205;BME280;64986;55.672;37.628;2022-12-18T11:06:14;99416.72;;;-1.81;68.11
76205;BME280;64986;55.672;37.628;2022-12-18T11:08:41;99433.13;;;-1.82;68.11
76205;BME280;64986;55.672;37.628;2022-12-18T11:11:24;99440.78;;;-1.50;67.77
76205;BME280;64986;55.672;37.628;2022-12-18T11:14:15;99431.00;;;-1.47;67.26
76205;BME280;64986;55.672;37.628;2022-12-18T11:16:44;99431.31;;;-1.71;67.99
76205;BME280;64986;55.672;37.628;2022-12-18T11:21:56;99418.38;;;-1.50;67.93
76205;BME280;64986;55.672;37.628;2022-12-18T11:26:54;99416.13;;;-1.64;67.34
76205;BME280;64986;55.672;37.628;2022-12-18T11:29:37;99431.44;;;-1.42;67.66
76205;BME280;64986;55.672;37.628;2022-12-18T11:34:52;99421.59;;;-1.57;67.79
76205;BME280;64986;55.672;37.628;2022-12-18T11:37:20;99447.63;;;-1.40;68.05
76205;BME280;64986;55.672;37.628;2022-12-18T11:39:51;99439.72;;;-1.69;67.39
76205;BME280;64986;55.672;37.628;2022-12-18T11:42:41;99446.47;;;-1.56;66.24
76205;BME280;64986;55.672;37.628;2022-12-18T11:50:14;99467.75;;;-1.33;67.73
76205;BME280;64986;55.672;37.628;2022-12-18T11:52:41;99475.34;;;-1.42;67.89
76205;BME280;64986;55.672;37.628;2022-12-18T11:55:37;99474.41;;;-1.82;66.68
76205;BME280;64986;55.672;37.628;2022-12-18T12:00:31;99490.50;;;-1.27;67.31
76205;BME280;64986;55.672;37.628;2022-12-18T12:08:06;99516.00;;;-1.03;68.14
76205;BME280;64986;55.672;37.628;2022-12-18T12:21:41;99537.28;;;-1.42;66.30
76205;BME280;64986;55.672;37.628;2022-12-18T12:40:52;99520.81;;;-1.71;66.42
76205;BME280;64986;55.672;37.628;2022-12-18T12:43:44;99563.09;;;-1.42;66.72
76205;BME280;64986;55.672;37.628;2022-12-18T12:46:16;99569.25;;;-1.54;67.08
76205;BME280;64986;55.672;37.628;2022-12-18T12:51:34;99565.47;;;-1.71;67.34
76205;BME280;64986;55.672;37.628;2022-12-18T12:54:03;99593.28;;;-1.74;67.33
76205;BME280;64986;55.672;37.628;2022-12-18T12:56:42;99602.44;;;-1.70;67.92
76205;BME280;64986;55.672;37.628;2022-12-18T13:04:36;99609.38;;;-1.50;67.25
76205;BME280;64986;55.672;37.628;2022-12-18T13:07:26;99621.09;;;-1.25;68.48
76205;BME280;64986;55.672;37.628;2022-12-18T13:10:13;99634.50;;;-1.10;66.21
76205;BME280;64986;55.672;37.628;2022-12-18T13:13:01;99630.56;;;-1.35;67.52
76205;BME280;64986;55.672;37.628;2022-12-18T13:20:41;99638.47;;;-1.06;67.45
76205;BME280;64986;55.672;37.628;2022-12-18T13:28:24;99643.38;;;-1.45;67.59
76205;BME280;64986;55.672;37.628;2022-12-18T13:31:08;99661.69;;;-1.48;68.32
76205;BME280;64986;55.672;37.628;2022-12-18T13:33:40;99646.78;;;-1.23;67.47
76205;BME280;64986;55.672;37.628;2022-12-18T13:36:33;99664.41;;;-1.49;65.75
76205;BME280;64986;55.672;37.628;2022-12-18T13:39:22;99658.59;;;-1.62;66.23
76205;BME280;64986;55.672;37.628;2022-12-18T13:41:53;99671.75;;;-1.65;67.33
76205;BME280;64986;55.672;37.628;2022-12-18T13:44:31;99690.66;;;-1.44;66.41
76205;BME280;64986;55.672;37.628;2022-12-18T13:47:02;99677.72;;;-1.65;66.96
76205;BME280;64986;55.672;37.628;2022-12-18T13:51:55;99713.31;;;-1.48;66.88
76205;BME280;64986;55.672;37.628;2022-12-18T13:56:50;99708.56;;;-1.63;67.60
76205;BME280;64986;55.672;37.628;2022-12-18T13:59:41;99725.44;;;-1.59;66.84
76205;BME280;64986;55.672;37.628;2022-12-18T14:02:14;99724.75;;;-1.61;66.79
76205;BME280;64986;55.672;37.628;2022-12-18T14:04:40;99743.09;;;-1.32;68.18
76205;BME280;64986;55.672;37.628;2022-12-18T14:07:10;99748.53;;;-1.15;67.71
76205;BME280;64986;55.672;37.628;2022-12-18T14:09:43;99740.97;;;-1.38;67.38
76205;BME280;64986;55.672;37.628;2022-12-18T14:15:03;99744.22;;;-1.57;68.07
76205;BME280;64986;55.672;37.628;2022-12-18T14:17:30;99730.59;;;-1.59;67.36
76205;BME280;64986;55.672;37.628;2022-12-18T14:19:57;99746.16;;;-1.38;67.99
76205;BME280;64986;55.672;37.628;2022-12-18T14:22:26;99748.09;;;-1.63;67.08
76205;BME280;64986;55.672;37.628;2022-12-18T14:25:16;99755.66;;;-1.28;66.31
76205;BME280;64986;55.672;37.628;2022-12-18T14:27:48;99765.13;;;-1.72;66.62
76205;BME280;64986;55.672;37.628;2022-12-18T14:30:26;99766.59;;;-1.35;66.78
76205;BME280;64986;55.672;37.628;2022-12-18T14:35:35;99783.38;;;-1.41;67.94
76205;BME280;64986;55.672;37.628;2022-12-18T14:38:28;99792.63;;;-1.27;67.68
76205;BME280;64986;55.672;37.628;2022-12-18T14:41:32;99788.81;;;-1.12;67.39
76205;BME280;64986;55.672;37.628;2022-12-18T14:43:52;99811.88;;;-0.67;69.83
76205;BME280;64986;55.672;37.628;2022-12-18T14:48:56;99787.84;;;-1.54;66.26
76205;BME280;64986;55.672;37.628;2022-12-18T14:51:24;99822.13;;;-1.09;68.93
76205;BME280;64986;55.672;37.628;2022-12-18T14:53:56;99822.22;;;-1.76;65.18
76205;BME280;64986;55.672;37.628;2022-12-18T14:56:24;99818.50;;;-1.72;67.38